Time;durP1;ratioP1;P1;durP2;ratioP2;P2;SDS_P1;SDS_P2;PMS_P1;PMS_P2;Temp;Humidity;BMP_temperature;BMP_pressure;BME280_temperature;BME280_humidity;BME280_pressure;Samples;Min_cycle;Max_cycle;Signal;HPM_P1;HPM_P2
2021/10/08 00:00:52;;;;;;;;;;;;;;;-142.75;100.00;78803.16;5076683;28;19920;-79
2021/10/08 00:03:17;;;;;;;;;;;;;;;-142.75;100.00;78811.03;5056408;28;20297;-78
2021/10/08 00:05:42;;;;;;;;;;;;;;;-142.75;100.00;78813.00;5054134;28;19921;-81
2021/10/08 00:08:08;;;;;;;;;;;;;;;-142.75;100.00;78814.97;5053766;28;19925;-80
2021/10/08 00:10:33;;;;;;;;;;;;;;;-142.75;100.00;78828.78;5073180;28;20346;-80
2021/10/08 00:12:58;;;;;;;;;;;;;;;-142.75;100.00;78828.78;5055469;28;19916;-81
2021/10/08 00:15:24;;;;;;;;;;;;;;;-142.75;100.00;78850.44;5074720;28;19991;-79
2021/10/08 00:17:49;;;;;;;;;;;;;;;-142.75;100.00;78856.34;5070428;28;20010;-79
2021/10/08 00:20:14;;;;;;;;;;;;;;;-142.75;100.00;78858.31;5074487;28;20271;-78
2021/10/08 00:22:40;;;;;;;;;;;;;;;-142.75;100.00;78866.19;5057787;28;20292;-78
2021/10/08 00:25:05;;;;;;;;;;;;;;;-142.75;100.00;78866.19;5057940;28;19916;-79
2021/10/08 00:27:30;;;;;;;;;;;;;;;-142.75;100.00;78864.22;5077173;28;19920;-80
2021/10/08 00:29:56;;;;;;;;;;;;;;;-142.75;100.00;78870.13;5058229;28;19927;-79
2021/10/08 00:32:21;;;;;;;;;;;;;;;-142.75;100.00;78891.78;5075142;28;19944;-81
2021/10/08 00:34:46;;;;;;;;;;;;;;;-142.75;100.00;78891.78;5076127;28;19996;-78
2021/10/08 00:37:11;;;;;;;;;;;;;;;-142.75;100.00;78905.59;5058104;28;19921;-82
2021/10/08 00:39:36;;;;;;;;;;;;;;;-142.75;100.00;78909.53;5058182;28;19943;-78
2021/10/08 00:42:04;;;;;;;;;;;;;;;-142.75;100.00;78905.59;5075683;28;19921;-82
2021/10/08 00:44:29;;;;;;;;;;;;;;;-142.75;100.00;78913.47;5057962;28;19917;-81
2021/10/08 00:46:55;;;;;;;;;;;;;;;-142.75;100.00;78909.53;5073343;28;19921;-78
2021/10/08 00:49:20;;;;;;;;;;;;;;;-142.75;100.00;78921.34;5058130;28;19923;-80
2021/10/08 00:51:45;;;;;;;;;;;;;;;-142.75;100.00;78919.38;5057373;28;19917;-79
2021/10/08 00:54:10;;;;;;;;;;;;;;;-142.75;100.00;78913.47;5075157;28;19924;-79
2021/10/08 00:56:36;;;;;;;;;;;;;;;-142.75;100.00;78913.47;5076206;28;19938;-79
2021/10/08 00:59:01;;;;;;;;;;;;;;;-142.75;100.00;78929.22;5077375;28;20425;-80
2021/10/08 01:01:26;;;;;;;;;;;;;;;-142.75;100.00;78923.31;5056170;28;19916;-78
2021/10/08 01:03:52;;;;;;;;;;;;;;;-142.75;100.00;78943.00;5058765;28;19925;-79
2021/10/08 01:06:17;;;;;;;;;;;;;;;-142.75;100.00;78937.09;5054707;28;19921;-78
2021/10/08 01:08:42;;;;;;;;;;;;;;;-142.75;100.00;78952.84;5075077;28;19954;-79
2021/10/08 01:11:07;;;;;;;;;;;;;;;-142.75;100.00;78956.78;5074503;28;19916;-81
2021/10/08 01:13:33;;;;;;;;;;;;;;;-142.75;100.00;78929.22;5074341;28;20351;-80
2021/10/08 01:15:58;;;;;;;;;;;;;;;-142.75;100.00;78911.50;5055641;28;19923;-80
2021/10/08 01:18:24;;;;;;;;;;;;;;;-142.75;100.00;78899.69;5056383;28;19924;-79
2021/10/08 01:20:49;;;;;;;;;;;;;;;-142.75;100.00;78897.72;5056297;28;19916;-79
2021/10/08 01:23:14;;;;;;;;;;;;;;;-142.75;100.00;78887.84;5055414;28;20392;-80
2021/10/08 01:25:40;;;;;;;;;;;;;;;-142.75;100.00;78891.78;5055152;28;19923;-81
2021/10/08 01:28:05;;;;;;;;;;;;;;;-142.75;100.00;78881.94;5055936;28;19917;-80
2021/10/08 01:30:31;;;;;;;;;;;;;;;-142.75;100.00;78897.72;5055101;28;20397;-80
2021/10/08 01:32:57;;;;;;;;;;;;;;;-142.75;100.00;78883.91;5055311;28;19944;-80
2021/10/08 01:35:22;;;;;;;;;;;;;;;-142.75;100.00;78909.53;5070673;28;20005;-82
2021/10/08 01:37:47;;;;;;;;;;;;;;;-142.75;100.00;78921.34;5073180;28;19917;-79
2021/10/08 01:40:13;;;;;;;;;;;;;;;-142.75;100.00;78919.38;5073733;28;19973;-78
2021/10/08 01:42:39;;;;;;;;;;;;;;;-142.75;100.00;78931.19;5055890;28;19965;-79
2021/10/08 01:45:05;;;;;;;;;;;;;;;-142.75;100.00;78933.16;5055847;28;20366;-78
2021/10/08 01:47:30;;;;;;;;;;;;;;;-142.75;100.00;78941.03;5073079;28;19946;-79
2021/10/08 01:49:55;;;;;;;;;;;;;;;-142.75;100.00;78933.16;5072631;28;19932;-81
2021/10/08 01:52:21;;;;;;;;;;;;;;;-142.75;100.00;78943.00;5069952;28;20396;-80
2021/10/08 01:54:46;;;;;;;;;;;;;;;-142.75;100.00;78921.34;5072909;28;19978;-80
2021/10/08 01:57:11;;;;;;;;;;;;;;;-142.75;100.00;78917.41;5073401;28;19923;-81
2021/10/08 01:59:36;;;;;;;;;;;;;;;-142.75;100.00;78935.13;5055726;28;19920;-81
2021/10/08 02:02:02;;;;;;;;;;;;;;;-142.75;100.00;78944.97;5055559;28;19938;-81
2021/10/08 02:04:27;;;;;;;;;;;;;;;-142.75;100.00;78937.09;5054540;28;20400;-81
2021/10/08 02:06:52;;;;;;;;;;;;;;;-142.75;100.00;78929.22;5073157;28;19921;-81
2021/10/08 02:09:17;;;;;;;;;;;;;;;-142.75;100.00;78913.47;5070069;28;20381;-81
2021/10/08 02:11:43;;;;;;;;;;;;;;;-142.75;100.00;78948.91;5074363;28;19922;-80
2021/10/08 02:14:08;;;;;;;;;;;;;;;-142.75;100.00;78968.63;5055505;28;20397;-81
2021/10/08 02:16:33;;;;;;;;;;;;;;;-142.75;100.00;78968.63;5072951;28;19923;-82
2021/10/08 02:18:59;;;;;;;;;;;;;;;-142.75;100.00;78982.41;5073470;28;19928;-81
2021/10/08 02:21:24;;;;;;;;;;;;;;;-142.75;100.00;78994.22;5053685;28;19923;-79
2021/10/08 02:23:50;;;;;;;;;;;;;;;-142.75;100.00;78992.25;5072686;28;20015;-80
2021/10/08 02:26:16;;;;;;;;;;;;;;;-142.75;100.00;79000.13;5055711;28;19944;-79
2021/10/08 02:28:41;;;;;;;;;;;;;;;-142.75;100.00;79000.13;5056145;28;19923;-78
2021/10/08 02:31:07;;;;;;;;;;;;;;;-142.75;100.00;79004.06;5055780;28;19924;-78
2021/10/08 02:33:34;;;;;;;;;;;;;;;-142.75;100.00;79015.88;5054847;28;19920;-79
2021/10/08 02:36:01;;;;;;;;;;;;;;;-142.75;100.00;79023.75;5057400;28;19920;-82
2021/10/08 02:38:26;;;;;;;;;;;;;;;-142.75;100.00;79021.78;5060257;28;20373;-81
2021/10/08 02:40:51;;;;;;;;;;;;;;;-142.75;100.00;79031.66;5077483;28;19939;-80
2021/10/08 02:43:16;;;;;;;;;;;;;;;-142.75;100.00;79019.81;5076803;28;19945;-80
2021/10/08 02:45:42;;;;;;;;;;;;;;;-142.75;100.00;79002.09;5057511;28;19927;-79
2021/10/08 02:48:07;;;;;;;;;;;;;;;-142.75;100.00;79008.00;5075934;28;20376;-82
2021/10/08 02:50:33;;;;;;;;;;;;;;;-142.75;100.00;79004.06;5076729;28;19920;-83
2021/10/08 02:52:58;;;;;;;;;;;;;;;-142.75;100.00;79006.03;5076582;28;19931;-79
2021/10/08 02:55:23;;;;;;;;;;;;;;;-142.75;100.00;79004.06;5061345;28;20389;-79
2021/10/08 02:57:48;;;;;;;;;;;;;;;-142.75;100.00;79000.13;5060969;28;19924;-81
2021/10/08 03:00:14;;;;;;;;;;;;;;;-142.75;100.00;79006.03;5079677;28;19916;-82
2021/10/08 03:02:39;;;;;;;;;;;;;;;-142.75;100.00;79009.97;5059960;28;19931;-82
2021/10/08 03:05:05;;;;;;;;;;;;;;;-142.75;100.00;79002.09;5060196;28;19927;-82
2021/10/08 03:07:30;;;;;;;;;;;;;;;-142.75;100.00;78998.16;5079345;28;19920;-81
2021/10/08 03:09:56;;;;;;;;;;;;;;;-142.75;100.00;79000.13;5077892;28;20286;-83
2021/10/08 03:12:21;;;;;;;;;;;;;;;-142.75;100.00;79004.06;5077878;28;19917;-82
2021/10/08 03:14:47;;;;;;;;;;;;;;;-142.75;100.00;79023.75;5077499;28;19922;-81
2021/10/08 03:17:12;;;;;;;;;;;;;;;-142.75;100.00;79041.50;5059327;28;20450;-82
2021/10/08 03:19:37;;;;;;;;;;;;;;;-142.75;100.00;79047.41;5079184;28;19938;-80
2021/10/08 03:22:03;;;;;;;;;;;;;;;-142.75;100.00;79039.53;5059977;28;19965;-81
2021/10/08 03:24:28;;;;;;;;;;;;;;;-142.75;100.00;79053.31;5061399;28;19923;-79
2021/10/08 03:26:53;;;;;;;;;;;;;;;-142.75;100.00;79059.22;5060303;28;19979;-80
2021/10/08 03:29:19;;;;;;;;;;;;;;;-142.75;100.00;79055.28;5080348;28;19931;-81
2021/10/08 03:31:44;;;;;;;;;;;;;;;-142.75;100.00;79053.31;5078929;28;20380;-83
2021/10/08 03:34:09;;;;;;;;;;;;;;;-142.75;100.00;79063.16;5079764;28;19946;-83
2021/10/08 03:39:06;;;;;;;;;;;;;;;-142.75;100.00;79067.09;5077310;28;19961;-81
2021/10/08 03:41:31;;;;;;;;;;;;;;;-142.75;100.00;79071.03;5059913;28;19920;-78
2021/10/08 03:43:57;;;;;;;;;;;;;;;-142.75;100.00;79059.22;5078792;28;19955;-83
2021/10/08 03:46:25;;;;;;;;;;;;;;;-142.75;100.00;79051.34;5077427;28;19989;-83
2021/10/08 03:49:12;;;;;;;;;;;;;;;-142.75;100.00;79031.66;5078067;28;20297;-84
2021/10/08 03:51:37;;;;;;;;;;;;;;;-142.75;100.00;79025.72;5077610;28;19928;-79
2021/10/08 03:54:03;;;;;;;;;;;;;;;-142.75;100.00;79047.41;5077046;28;19921;-81
2021/10/08 03:56:29;;;;;;;;;;;;;;;-142.75;100.00;79043.47;5058590;28;19959;-82
2021/10/08 03:58:55;;;;;;;;;;;;;;;-142.75;100.00;79043.47;5079270;28;20327;-81
2021/10/08 04:01:20;;;;;;;;;;;;;;;-142.75;100.00;79053.31;5059696;28;19916;-82
2021/10/08 04:03:45;;;;;;;;;;;;;;;-142.75;100.00;79039.53;5077393;28;20378;-81
2021/10/08 04:06:11;;;;;;;;;;;;;;;-142.75;100.00;79019.81;5076437;28;20344;-82
2021/10/08 04:08:36;;;;;;;;;;;;;;;-142.75;100.00;79013.91;5059297;28;19922;-80
2021/10/08 04:11:01;;;;;;;;;;;;;;;-142.75;100.00;78992.25;5076851;28;20382;-82
2021/10/08 04:13:27;;;;;;;;;;;;;;;-142.75;100.00;78986.34;5076249;28;19931;-82
2021/10/08 04:15:52;;;;;;;;;;;;;;;-142.75;100.00;78966.66;5076625;28;19921;-82
2021/10/08 04:18:17;;;;;;;;;;;;;;;-142.75;100.00;78988.31;5076849;28;19912;-83
2021/10/08 04:20:42;;;;;;;;;;;;;;;-142.75;100.00;78982.41;5091970;22;19925;-77
2021/10/08 04:23:08;;;;;;;;;;;;;;;-142.75;100.00;78992.25;5050387;28;20073;-79
2021/10/08 04:25:33;;;;;;;;;;;;;;;-142.75;100.00;78984.38;5054776;28;19995;-79
2021/10/08 04:27:58;;;;;;;;;;;;;;;-142.75;100.00;79006.03;5056643;28;19985;-79
2021/10/08 04:30:24;;;;;;;;;;;;;;;-142.75;100.00;79025.72;5072930;28;19916;-78
2021/10/08 04:32:49;;;;;;;;;;;;;;;-142.75;100.00;79047.41;5055133;28;20293;-78
2021/10/08 04:35:14;;;;;;;;;;;;;;;-142.75;100.00;79049.38;5054023;28;19916;-79
2021/10/08 04:37:40;;;;;;;;;;;;;;;-142.75;100.00;79035.59;5055312;28;19920;-79
2021/10/08 04:40:05;;;;;;;;;;;;;;;-142.75;100.00;79063.16;5055716;28;19962;-79
2021/10/08 04:42:30;;;;;;;;;;;;;;;-142.75;100.00;79069.06;5072488;28;20002;-78
2021/10/08 04:44:56;;;;;;;;;;;;;;;-142.75;100.00;79063.16;5054909;28;19920;-79
2021/10/08 04:47:21;;;;;;;;;;;;;;;-142.75;100.00;79074.97;5054497;28;19951;-78
2021/10/08 04:49:46;;;;;;;;;;;;;;;-142.75;100.00;79078.91;5072623;28;19916;-78
2021/10/08 04:52:11;;;;;;;;;;;;;;;-142.75;100.00;79084.81;5073417;28;19965;-78
2021/10/08 04:54:37;;;;;;;;;;;;;;;-142.75;100.00;79094.69;5073610;28;19942;-78
2021/10/08 04:57:03;;;;;;;;;;;;;;;-142.75;100.00;79102.56;5055049;28;19928;-79
2021/10/08 04:59:28;;;;;;;;;;;;;;;-142.75;100.00;79112.41;5055692;28;19923;-78
2021/10/08 05:01:53;;;;;;;;;;;;;;;-142.75;100.00;79104.53;5054707;28;20421;-79
2021/10/08 05:04:18;;;;;;;;;;;;;;;-142.75;100.00;79102.56;5056274;28;19924;-79
2021/10/08 05:06:43;;;;;;;;;;;;;;;-142.75;100.00;79100.59;5073914;28;20358;-78
2021/10/08 05:09:09;;;;;;;;;;;;;;;-142.75;100.00;79098.63;5073836;28;20351;-78
2021/10/08 05:11:34;;;;;;;;;;;;;;;-142.75;100.00;79106.50;5054266;28;19921;-79
2021/10/08 05:13:59;;;;;;;;;;;;;;;-142.75;100.00;79120.28;5054569;28;20389;-78
2021/10/08 05:16:24;;;;;;;;;;;;;;;-142.75;100.00;79114.38;5054441;28;20419;-78
2021/10/08 05:18:49;;;;;;;;;;;;;;;-142.75;100.00;79098.63;5072161;28;19916;-78
2021/10/08 05:21:15;;;;;;;;;;;;;;;-142.75;100.00;79096.66;5071722;28;20011;-79
2021/10/08 05:23:40;;;;;;;;;;;;;;;-142.75;100.00;79069.06;5071880;28;19921;-79
2021/10/08 05:26:05;;;;;;;;;;;;;;;-142.75;100.00;79065.13;5071380;28;19940;-79
2021/10/08 05:28:30;;;;;;;;;;;;;;;-142.75;100.00;79051.34;5054153;28;19938;-79
2021/10/08 05:30:56;;;;;;;;;;;;;;;-142.75;100.00;79065.13;5053216;28;19916;-80
2021/10/08 05:33:21;;;;;;;;;;;;;;;-142.75;100.00;79065.13;5054279;28;19923;-79
2021/10/08 05:35:46;;;;;;;;;;;;;;;-142.75;100.00;79067.09;5053898;28;19920;-79
2021/10/08 05:38:11;;;;;;;;;;;;;;;-142.75;100.00;79057.25;5051941;28;19924;-78
2021/10/08 05:40:37;;;;;;;;;;;;;;;-142.75;100.00;79063.16;5053903;28;19927;-79
2021/10/08 05:43:02;;;;;;;;;;;;;;;-142.75;100.00;79076.94;5055119;28;20347;-79
2021/10/08 05:45:27;;;;;;;;;;;;;;;-142.75;100.00;79094.69;5054831;28;19988;-78
2021/10/08 05:47:53;;;;;;;;;;;;;;;-142.75;100.00;79112.41;5073672;28;20385;-79
2021/10/08 05:50:18;;;;;;;;;;;;;;;-142.75;100.00;79098.63;5055505;28;20037;-79
2021/10/08 05:52:43;;;;;;;;;;;;;;;-142.75;100.00;79082.84;5055109;28;19978;-79
2021/10/08 05:55:08;;;;;;;;;;;;;;;-142.75;100.00;79078.91;5054742;28;19924;-79
2021/10/08 05:57:33;;;;;;;;;;;;;;;-142.75;100.00;79071.03;5054719;28;19920;-78
2021/10/08 05:59:59;;;;;;;;;;;;;;;-142.75;100.00;79063.16;5055173;28;19969;-80
2021/10/08 06:02:24;;;;;;;;;;;;;;;-142.75;100.00;79090.72;5054608;28;20384;-79
2021/10/08 06:04:49;;;;;;;;;;;;;;;-142.75;100.00;79118.31;5072722;28;19997;-79
2021/10/08 06:07:14;;;;;;;;;;;;;;;-142.75;100.00;79124.22;5054247;28;20297;-79
2021/10/08 06:09:45;;;;;;;;;;;;;;;-142.75;100.00;79122.25;5072114;28;19943;-81
2021/10/08 06:12:11;;;;;;;;;;;;;;;-142.75;100.00;79110.44;5054491;28;20422;-80
2021/10/08 06:14:36;;;;;;;;;;;;;;;-142.75;100.00;79169.53;5071833;28;19952;-81
2021/10/08 06:17:01;;;;;;;;;;;;;;;-142.75;100.00;79191.19;5054270;28;19920;-80
2021/10/08 06:19:27;;;;;;;;;;;;;;;-142.75;100.00;79161.66;5053694;28;20267;-80
2021/10/08 06:21:52;;;;;;;;;;;;;;;-142.75;100.00;79130.13;5072112;28;20420;-79
2021/10/08 06:24:17;;;;;;;;;;;;;;;-142.75;100.00;79118.31;5053495;28;19920;-80
2021/10/08 06:26:42;;;;;;;;;;;;;;;-142.75;100.00;79145.88;5053444;28;19920;-78
2021/10/08 06:29:07;;;;;;;;;;;;;;;-142.75;100.00;79159.69;5054146;28;19924;-79
2021/10/08 06:31:33;;;;;;;;;;;;;;;-142.75;100.00;79185.28;5053022;28;20370;-80
2021/10/08 06:33:58;;;;;;;;;;;;;;;-142.75;100.00;79201.03;5053443;28;19924;-81
2021/10/08 06:36:23;;;;;;;;;;;;;;;-142.75;100.00;79212.84;5071223;28;19923;-79
2021/10/08 06:38:48;;;;;;;;;;;;;;;-142.75;100.00;79222.72;5052901;28;19981;-81
2021/10/08 06:41:14;;;;;;;;;;;;;;;-142.75;100.00;79230.59;5052518;28;19916;-79
2021/10/08 06:43:39;;;;;;;;;;;;;;;-142.75;100.00;79228.63;5052286;28;19932;-80
2021/10/08 06:46:04;;;;;;;;;;;;;;;-142.75;100.00;79228.63;5052565;28;20338;-79
2021/10/08 06:48:29;;;;;;;;;;;;;;;-142.75;100.00;79220.75;5052525;28;19924;-79
2021/10/08 06:50:57;;;;;;;;;;;;;;;-142.75;100.00;79214.81;5051861;28;19920;-79
2021/10/08 06:53:22;;;;;;;;;;;;;;;-142.75;100.00;79212.84;5052076;28;19920;-80
2021/10/08 06:55:48;;;;;;;;;;;;;;;-142.75;100.00;79191.19;5052237;28;20457;-80
2021/10/08 06:58:13;;;;;;;;;;;;;;;-142.75;100.00;79191.19;5070870;28;19923;-81
2021/10/08 07:00:38;;;;;;;;;;;;;;;-142.75;100.00;79201.03;5071132;28;19930;-81
2021/10/08 07:03:03;;;;;;;;;;;;;;;-142.75;100.00;79185.28;5051866;28;20332;-79
2021/10/08 07:05:29;;;;;;;;;;;;;;;-142.75;100.00;79203.00;5070732;28;20297;-80
2021/10/08 07:07:54;;;;;;;;;;;;;;;-142.75;100.00;79199.06;5071275;28;20015;-80
2021/10/08 07:10:20;;;;;;;;;;;;;;;-142.75;100.00;79163.63;5053149;28;19927;-80
2021/10/08 07:12:45;;;;;;;;;;;;;;;-142.75;100.00;79134.06;5053184;28;20356;-80
2021/10/08 07:15:16;;;;;;;;;;;;;;;-142.75;100.00;79145.88;5052814;28;19955;-79
2021/10/08 07:17:44;;;;;;;;;;;;;;;-142.75;100.00;79112.41;5051450;28;19982;-80
2021/10/08 07:20:10;;;;;;;;;;;;;;;-142.75;100.00;79102.56;5053412;28;20301;-79
2021/10/08 07:22:38;;;;;;;;;;;;;;;-142.75;100.00;79126.19;5073153;28;19924;-80
2021/10/08 07:25:04;;;;;;;;;;;;;;;-142.75;100.00;79159.69;5072560;28;19969;-81
2021/10/08 07:27:29;;;;;;;;;;;;;;;-142.75;100.00;79151.78;5056757;28;19925;-79
2021/10/08 07:29:55;;;;;;;;;;;;;;;-142.75;100.00;79157.72;5057893;28;19917;-79
2021/10/08 07:32:20;;;;;;;;;;;;;;;-142.75;100.00;79132.09;5056905;28;19923;-80
2021/10/08 07:34:45;;;;;;;;;;;;;;;-142.75;100.00;79102.56;5056529;28;19939;-79
2021/10/08 07:37:13;;;;;;;;;;;;;;;-142.75;100.00;79073.00;5074735;28;20046;-80
2021/10/08 07:39:38;;;;;;;;;;;;;;;-142.75;100.00;79037.56;5056399;28;19916;-80
2021/10/08 07:42:03;;;;;;;;;;;;;;;-142.75;100.00;79029.66;5056983;28;19923;-80
2021/10/08 07:44:29;;;;;;;;;;;;;;;-142.75;100.00;79094.69;5074646;28;20351;-80
2021/10/08 07:46:54;;;;;;;;;;;;;;;-142.75;100.00;79049.38;5075674;28;19927;-79
2021/10/08 07:49:19;;;;;;;;;;;;;;;-142.75;100.00;79029.66;5075454;28;19923;-80
2021/10/08 07:51:44;;;;;;;;;;;;;;;-142.75;100.00;79067.09;5074955;28;19963;-79
2021/10/08 07:54:09;;;;;;;;;;;;;;;-142.75;100.00;79090.72;5055683;28;19916;-79
2021/10/08 07:56:35;;;;;;;;;;;;;;;-142.75;100.00;79098.63;5073555;28;19917;-78
2021/10/08 07:59:03;;;;;;;;;;;;;;;-142.75;100.00;79106.50;5074593;28;19916;-79
2021/10/08 08:01:28;;;;;;;;;;;;;;;-142.75;100.00;79108.47;5055884;28;19923;-80
2021/10/08 08:03:53;;;;;;;;;;;;;;;-142.75;100.00;79086.78;5074220;28;19916;-78
2021/10/08 08:06:18;;;;;;;;;;;;;;;-142.75;100.00;79055.28;5056824;28;19920;-80
2021/10/08 08:08:43;;;;;;;;;;;;;;;-142.75;100.00;79035.59;5057250;28;19916;-79
2021/10/08 08:11:09;;;;;;;;;;;;;;;-142.75;100.00;79074.97;5075061;28;19924;-79
2021/10/08 08:13:34;;;;;;;;;;;;;;;-142.75;100.00;79065.13;5056961;28;19973;-80
2021/10/08 08:15:59;;;;;;;;;;;;;;;-142.75;100.00;79063.16;5055875;28;19916;-79
2021/10/08 08:18:24;;;;;;;;;;;;;;;-142.75;100.00;79035.59;5056758;28;19925;-79
2021/10/08 08:20:49;;;;;;;;;;;;;;;-142.75;100.00;79082.84;5075072;28;19920;-81
2021/10/08 08:23:15;;;;;;;;;;;;;;;-142.75;100.00;79096.66;5075652;28;19916;-80
2021/10/08 08:25:40;;;;;;;;;;;;;;;-142.75;100.00;79078.91;5055768;28;19917;-81
2021/10/08 08:28:05;;;;;;;;;;;;;;;-142.75;100.00;79053.31;5056523;28;20022;-79
2021/10/08 08:30:35;;;;;;;;;;;;;;;-142.75;100.00;79041.50;5074691;28;19930;-81
2021/10/08 08:33:00;;;;;;;;;;;;;;;-142.75;100.00;79063.16;5074431;28;19920;-80
2021/10/08 08:35:25;;;;;;;;;;;;;;;-142.75;100.00;79074.97;5074145;28;20351;-81
2021/10/08 08:37:50;;;;;;;;;;;;;;;-142.75;100.00;79027.69;5056255;28;20004;-79
2021/10/08 08:40:16;;;;;;;;;;;;;;;-142.75;100.00;78962.69;5056146;28;19923;-80
2021/10/08 08:42:41;;;;;;;;;;;;;;;-142.75;100.00;78937.09;5056200;28;20382;-80
2021/10/08 08:45:06;;;;;;;;;;;;;;;-142.75;100.00;78905.59;5056175;28;19924;-79
2021/10/08 08:47:32;;;;;;;;;;;;;;;-142.75;100.00;78923.31;5074203;28;19987;-79
2021/10/08 08:49:57;;;;;;;;;;;;;;;-142.75;100.00;78909.53;5056027;28;19924;-80
2021/10/08 08:52:22;;;;;;;;;;;;;;;-142.75;100.00;78905.59;5074037;28;19916;-80
2021/10/08 08:54:49;;;;;;;;;;;;;;;-142.75;100.00;78881.94;5055907;28;19965;-81
2021/10/08 08:57:15;;;;;;;;;;;;;;;-142.75;100.00;78901.66;5055933;28;20290;-79
2021/10/08 08:59:54;;;;;;;;;;;;;;;-142.75;100.00;78879.97;5056221;28;19917;-81
2021/10/08 09:02:23;;;;;;;;;;;;;;;-142.75;100.00;78872.09;5055743;28;19916;-81
2021/10/08 09:04:48;;;;;;;;;;;;;;;-142.75;100.00;78881.94;5072798;28;20050;-80
2021/10/08 09:07:14;;;;;;;;;;;;;;;-142.75;100.00;78919.38;5073557;28;19976;-80
2021/10/08 09:09:39;;;;;;;;;;;;;;;-142.75;100.00;78921.34;5074266;28;19924;-81
2021/10/08 09:12:04;;;;;;;;;;;;;;;-142.75;100.00;78911.50;5055953;28;20381;-80
2021/10/08 09:14:30;;;;;;;;;;;;;;;-142.75;100.00;78887.84;5073746;28;19916;-82
2021/10/08 09:17:04;;;;;;;;;;;;;;;-142.75;100.00;78832.72;5073971;28;19983;-81
2021/10/08 09:19:48;;;;;;;;;;;;;;;-142.75;100.00;78805.13;5055848;28;19916;-81
2021/10/08 09:22:23;;;;;;;;;;;;;;;-142.75;100.00;78807.09;5054266;28;19967;-81
2021/10/08 09:24:49;;;;;;;;;;;;;;;-142.75;100.00;78759.84;5073113;28;19920;-82
2021/10/08 09:27:15;;;;;;;;;;;;;;;-142.75;100.00;78750.00;5055721;28;20066;-81
2021/10/08 09:29:48;;;;;;;;;;;;;;;-142.75;100.00;78779.53;5074133;28;19917;-80
2021/10/08 09:32:13;;;;;;;;;;;;;;;-142.75;100.00;78811.03;5073037;28;19923;-81
2021/10/08 09:34:39;;;;;;;;;;;;;;;-142.75;100.00;78755.91;5049988;28;20014;-80
2021/10/08 09:37:06;;;;;;;;;;;;;;;-142.75;100.00;78801.19;5054721;28;19943;-80
2021/10/08 09:39:35;;;;;;;;;;;;;;;-142.75;100.00;78779.53;5055212;28;19924;-81
2021/10/08 09:42:04;;;;;;;;;;;;;;;-142.75;100.00;78751.97;5054774;28;19924;-81
2021/10/08 09:44:29;;;;;;;;;;;;;;;-142.75;100.00;78736.19;5071692;28;19917;-81
2021/10/08 09:47:10;;;;;;;;;;;;;;;-142.75;100.00;78690.91;5054979;28;20011;-80
2021/10/08 09:49:39;;;;;;;;;;;;;;;-142.75;100.00;78736.19;5069158;28;19960;-80
2021/10/08 09:52:17;;;;;;;;;;;;;;;-142.75;100.00;78751.97;5054118;28;19970;-81
2021/10/08 09:54:49;;;;;;;;;;;;;;;-142.75;100.00;78785.44;5054658;28;19969;-80
2021/10/08 09:57:14;;;;;;;;;;;;;;;-142.75;100.00;78791.34;5054250;28;19917;-81
2021/10/08 09:59:39;;;;;;;;;;;;;;;-142.75;100.00;78785.44;5054302;28;19942;-80
2021/10/08 10:02:05;;;;;;;;;;;;;;;-142.75;100.00;78797.25;5072136;28;19917;-81
2021/10/08 10:04:50;;;;;;;;;;;;;;;-142.75;100.00;78791.34;5072497;28;20313;-80
2021/10/08 10:07:17;;;;;;;;;;;;;;;-142.75;100.00;78748.03;5054671;28;19920;-80
2021/10/08 10:09:42;;;;;;;;;;;;;;;-142.75;100.00;78708.63;5055302;28;19920;-81
2021/10/08 10:12:07;;;;;;;;;;;;;;;-142.75;100.00;78681.06;5055025;28;19916;-81
2021/10/08 10:14:33;;;;;;;;;;;;;;;-142.75;100.00;78686.97;5072866;28;19923;-81
2021/10/08 10:17:00;;;;;;;;;;;;;;;-142.75;100.00;78629.84;5072839;28;19917;-82
2021/10/08 10:19:26;;;;;;;;;;;;;;;-142.75;100.00;78606.22;5073069;28;19916;-82
2021/10/08 10:21:54;;;;;;;;;;;;;;;-142.75;100.00;78606.22;5085529;22;19931;-81
2021/10/08 10:24:19;;;;;;;;;;;;;;;-142.75;100.00;78633.78;5055424;28;19928;-82
2021/10/08 10:26:44;;;;;;;;;;;;;;;-142.75;100.00;78635.75;5056980;28;20405;-80
2021/10/08 10:29:10;;;;;;;;;;;;;;;-142.75;100.00;78657.41;5056567;28;20357;-82
2021/10/08 10:31:36;;;;;;;;;;;;;;;-142.75;100.00;78657.41;5071502;28;19942;-80
2021/10/08 10:34:02;;;;;;;;;;;;;;;-142.75;100.00;78641.66;5056944;28;20343;-80
2021/10/08 10:36:29;;;;;;;;;;;;;;;-142.75;100.00;78592.44;5058479;28;20499;-79
2021/10/08 10:39:13;;;;;;;;;;;;;;;-142.75;100.00;78558.94;5057166;28;20412;-82
2021/10/08 10:41:39;;;;;;;;;;;;;;;-142.75;100.00;78513.66;5056188;28;20446;-80
2021/10/08 10:44:20;;;;;;;;;;;;;;;-142.75;100.00;78551.06;5076173;28;20288;-79
2021/10/08 10:47:02;;;;;;;;;;;;;;;-142.75;100.00;78551.06;5056686;28;19920;-79
2021/10/08 10:51:57;;;;;;;;;;;;;;;-142.75;100.00;78596.38;5075485;28;19916;-80
2021/10/08 10:54:35;;;;;;;;;;;;;;;-142.75;100.00;78555.00;5057018;28;19925;-79
2021/10/08 10:57:00;;;;;;;;;;;;;;;-142.75;100.00;78539.25;5059482;28;20451;-79
2021/10/08 10:59:29;;;;;;;;;;;;;;;-142.75;100.00;78572.72;5060759;28;19920;-80
2021/10/08 11:02:06;;;;;;;;;;;;;;;-142.75;100.00;78556.97;5075556;28;20409;-80
2021/10/08 11:04:32;;;;;;;;;;;;;;;-142.75;100.00;78493.97;5075015;28;20377;-81
2021/10/08 11:07:05;;;;;;;;;;;;;;;-142.75;100.00;78432.91;5079485;28;19981;-82
2021/10/08 11:09:31;;;;;;;;;;;;;;;-142.75;100.00;78363.97;5077229;28;19916;-82
2021/10/08 11:12:15;;;;;;;;;;;;;;;-142.75;100.00;78354.13;5080223;28;20302;-82
2021/10/08 11:14:40;;;;;;;;;;;;;;;-142.75;100.00;78306.88;5077958;28;19923;-81
2021/10/08 11:17:31;;;;;;;;;;;;;;;-142.75;100.00;78279.28;5060021;28;19916;-82
2021/10/08 11:19:56;;;;;;;;;;;;;;;-142.75;100.00;78279.28;5042263;28;20374;-83
2021/10/08 11:22:41;;;;;;;;;;;;;;;-142.75;100.00;78269.44;5060086;28;19916;-81
2021/10/08 11:25:06;;;;;;;;;;;;;;;-142.75;100.00;78226.13;5060110;28;19971;-81
2021/10/08 11:27:32;;;;;;;;;;;;;;;-142.75;100.00;78121.75;5078469;28;19920;-80
2021/10/08 11:30:02;;;;;;;;;;;;;;;-142.75;100.00;78039.03;5078843;28;19917;-81
2021/10/08 11:32:27;;;;;;;;;;;;;;;-142.75;98.53;78001.63;5076527;28;19916;-80
2021/10/08 11:34:53;;;;;;;;;;;;;;;-142.75;94.88;78015.41;5056642;28;20338;-80
2021/10/08 11:37:19;;;;;;;;;;;;;;;-142.75;95.48;78070.56;5079050;28;19954;-81
2021/10/08 11:39:45;;;;;;;;;;;;;;;-142.75;100.00;78145.38;5078076;28;19916;-82
2021/10/08 11:42:14;;;;;;;;;;;;;;;-142.75;100.00;78153.25;5077615;28;19917;-81
2021/10/08 11:44:55;;;;;;;;;;;;;;;-142.75;100.00;78196.59;5078442;28;19916;-82
2021/10/08 11:47:43;;;;;;;;;;;;;;;-142.75;100.00;78159.16;5055394;28;19928;-82
2021/10/08 11:51:10;;;;;;;;;;;;;;;-142.75;100.00;78165.06;5059084;28;19921;-79
2021/10/08 11:53:04;;;;;;;;;;;;;;;-142.75;100.00;78192.66;5059796;28;19916;-80
2021/10/08 11:55:32;;;;;;;;;;;;;;;-142.75;100.00;78157.19;5058573;28;19922;-82
2021/10/08 11:57:59;;;;;;;;;;;;;;;-142.75;100.00;78127.66;5058120;28;20012;-82
2021/10/08 12:00:26;;;;;;;;;;;;;;;-142.75;100.00;78135.53;5059464;28;20017;-83
2021/10/08 12:03:21;;;;;;;;;;;;;;;-142.75;100.00;78153.25;5076523;28;20377;-82
2021/10/08 12:05:47;;;;;;;;;;;;;;;-142.75;100.00;78109.94;5049606;28;19923;-82
2021/10/08 12:08:15;;;;;;;;;;;;;;;-142.75;100.00;78113.88;5057902;28;19920;-82
2021/10/08 12:10:57;;;;;;;;;;;;;;;-142.75;100.00;78062.69;5058415;28;19923;-82
2021/10/08 12:13:42;;;;;;;;;;;;;;;-142.75;100.00;78125.69;5057494;28;19917;-81
2021/10/08 12:16:08;;;;;;;;;;;;;;;-142.75;100.00;78147.34;5059496;28;19924;-81
2021/10/08 12:18:33;;;;;;;;;;;;;;;-142.75;100.00;78137.50;5057721;28;19924;-81
2021/10/08 12:21:09;;;;;;;;;;;;;;;-142.75;100.00;78137.50;5059386;28;19917;-82